sensor_id;sensor_type;location;lat;lon;timestamp;P1;durP1;ratioP1;P2;durP2;ratioP2
47555;SDS011;33291;46.222;26.460;2022-10-16T00:02:19;13.20;;;4.82;;
47555;SDS011;33291;46.222;26.460;2022-10-16T00:04:45;7.28;;;3.75;;
47555;SDS011;33291;46.222;26.460;2022-10-16T00:07:10;8.45;;;3.75;;
47555;SDS011;33291;46.222;26.460;2022-10-16T00:09:36;6.57;;;3.22;;
47555;SDS011;33291;46.222;26.460;2022-10-16T00:12:01;7.53;;;3.42;;
47555;SDS011;33291;46.222;26.460;2022-10-16T00:14:29;29.33;;;9.35;;
47555;SDS011;33291;46.222;26.460;2022-10-16T00:16:55;17.58;;;6.70;;
47555;SDS011;33291;46.222;26.460;2022-10-16T00:19:20;13.85;;;4.97;;
47555;SDS011;33291;46.222;26.460;2022-10-16T00:21:46;19.70;;;5.72;;
47555;SDS011;33291;46.222;26.460;2022-10-16T00:24:12;13.70;;;5.72;;
47555;SDS011;33291;46.222;26.460;2022-10-16T00:26:38;24.40;;;7.65;;
47555;SDS011;33291;46.222;26.460;2022-10-16T00:29:04;19.95;;;5.22;;
47555;SDS011;33291;46.222;26.460;2022-10-16T00:31:30;16.83;;;5.50;;
47555;SDS011;33291;46.222;26.460;2022-10-16T00:33:56;13.85;;;4.25;;
47555;SDS011;33291;46.222;26.460;2022-10-16T00:36:23;29.88;;;6.95;;
47555;SDS011;33291;46.222;26.460;2022-10-16T00:38:52;30.58;;;6.97;;
47555;SDS011;33291;46.222;26.460;2022-10-16T00:41:19;19.85;;;7.63;;
47555;SDS011;33291;46.222;26.460;2022-10-16T00:43:47;17.40;;;5.90;;
47555;SDS011;33291;46.222;26.460;2022-10-16T00:51:28;17.40;;;4.63;;
47555;SDS011;33291;46.222;26.460;2022-10-16T00:53:57;8.63;;;3.50;;
47555;SDS011;33291;46.222;26.460;2022-10-16T00:56:24;11.35;;;3.72;;
47555;SDS011;33291;46.222;26.460;2022-10-16T00:58:50;19.40;;;4.97;;
47555;SDS011;33291;46.222;26.460;2022-10-16T01:01:16;21.63;;;6.95;;
47555;SDS011;33291;46.222;26.460;2022-10-16T01:03:42;24.35;;;5.90;;
47555;SDS011;33291;46.222;26.460;2022-10-16T01:20:31;23.65;;;5.60;;
47555;SDS011;33291;46.222;26.460;2022-10-16T01:28:35;10.63;;;3.83;;
47555;SDS011;33291;46.222;26.460;2022-10-16T01:31:06;8.85;;;4.38;;
47555;SDS011;33291;46.222;26.460;2022-10-16T01:33:44;28.15;;;7.35;;
47555;SDS011;33291;46.222;26.460;2022-10-16T01:36:16;40.85;;;7.25;;
47555;SDS011;33291;46.222;26.460;2022-10-16T01:38:47;14.50;;;5.35;;
47555;SDS011;33291;46.222;26.460;2022-10-16T01:41:19;13.73;;;5.13;;
47555;SDS011;33291;46.222;26.460;2022-10-16T01:43:53;22.98;;;6.15;;
47555;SDS011;33291;46.222;26.460;2022-10-16T01:46:33;40.72;;;7.95;;
47555;SDS011;33291;46.222;26.460;2022-10-16T01:49:01;50.60;;;9.70;;
47555;SDS011;33291;46.222;26.460;2022-10-16T01:51:28;40.42;;;7.60;;
47555;SDS011;33291;46.222;26.460;2022-10-16T01:53:55;38.40;;;7.50;;
47555;SDS011;33291;46.222;26.460;2022-10-16T01:56:25;22.33;;;6.55;;
47555;SDS011;33291;46.222;26.460;2022-10-16T01:59:01;38.97;;;7.88;;
47555;SDS011;33291;46.222;26.460;2022-10-16T02:01:33;24.52;;;6.78;;
47555;SDS011;33291;46.222;26.460;2022-10-16T02:04:02;39.25;;;7.13;;
47555;SDS011;33291;46.222;26.460;2022-10-16T02:06:32;33.35;;;8.73;;
47555;SDS011;33291;46.222;26.460;2022-10-16T02:08:58;21.35;;;5.78;;
47555;SDS011;33291;46.222;26.460;2022-10-16T02:11:24;27.90;;;5.30;;
47555;SDS011;33291;46.222;26.460;2022-10-16T02:13:51;17.15;;;5.75;;
47555;SDS011;33291;46.222;26.460;2022-10-16T02:16:20;35.05;;;7.25;;
47555;SDS011;33291;46.222;26.460;2022-10-16T02:18:45;39.28;;;7.10;;
47555;SDS011;33291;46.222;26.460;2022-10-16T02:30:05;31.75;;;6.25;;
47555;SDS011;33291;46.222;26.460;2022-10-16T02:32:52;12.35;;;4.47;;
47555;SDS011;33291;46.222;26.460;2022-10-16T02:35:19;15.38;;;4.53;;
47555;SDS011;33291;46.222;26.460;2022-10-16T02:37:46;22.13;;;5.60;;
47555;SDS011;33291;46.222;26.460;2022-10-16T02:40:13;39.45;;;7.28;;
47555;SDS011;33291;46.222;26.460;2022-10-16T02:42:40;69.90;;;10.45;;
47555;SDS011;33291;46.222;26.460;2022-10-16T02:45:07;95.55;;;15.10;;
47555;SDS011;33291;46.222;26.460;2022-10-16T02:47:34;89.50;;;15.65;;
47555;SDS011;33291;46.222;26.460;2022-10-16T02:50:00;46.53;;;8.82;;
47555;SDS011;33291;46.222;26.460;2022-10-16T02:52:25;31.90;;;6.47;;
47555;SDS011;33291;46.222;26.460;2022-10-16T02:54:51;47.25;;;10.88;;
47555;SDS011;33291;46.222;26.460;2022-10-16T02:57:17;26.85;;;7.13;;
47555;SDS011;33291;46.222;26.460;2022-10-16T02:59:43;13.40;;;5.35;;
47555;SDS011;33291;46.222;26.460;2022-10-16T03:02:08;36.67;;;9.45;;
47555;SDS011;33291;46.222;26.460;2022-10-16T03:04:34;73.63;;;16.50;;
47555;SDS011;33291;46.222;26.460;2022-10-16T03:06:59;89.03;;;18.38;;
47555;SDS011;33291;46.222;26.460;2022-10-16T03:09:25;46.25;;;11.02;;
47555;SDS011;33291;46.222;26.460;2022-10-16T03:11:51;22.17;;;8.00;;
47555;SDS011;33291;46.222;26.460;2022-10-16T03:14:17;17.52;;;7.30;;
47555;SDS011;33291;46.222;26.460;2022-10-16T03:16:42;23.17;;;8.32;;
47555;SDS011;33291;46.222;26.460;2022-10-16T03:19:08;33.53;;;9.45;;
47555;SDS011;33291;46.222;26.460;2022-10-16T03:21:33;29.48;;;9.98;;
47555;SDS011;33291;46.222;26.460;2022-10-16T03:23:59;36.10;;;10.88;;
47555;SDS011;33291;46.222;26.460;2022-10-16T03:26:25;42.40;;;9.32;;
47555;SDS011;33291;46.222;26.460;2022-10-16T03:28:50;13.73;;;6.40;;
47555;SDS011;33291;46.222;26.460;2022-10-16T03:31:16;12.10;;;5.65;;
47555;SDS011;33291;46.222;26.460;2022-10-16T03:33:41;34.03;;;8.75;;
47555;SDS011;33291;46.222;26.460;2022-10-16T03:36:07;37.78;;;10.00;;
47555;SDS011;33291;46.222;26.460;2022-10-16T03:38:32;31.17;;;9.95;;
47555;SDS011;33291;46.222;26.460;2022-10-16T03:40:58;13.48;;;6.85;;
47555;SDS011;33291;46.222;26.460;2022-10-16T03:43:23;8.10;;;5.13;;
47555;SDS011;33291;46.222;26.460;2022-10-16T03:45:52;13.73;;;6.22;;
47555;SDS011;33291;46.222;26.460;2022-10-16T03:48:18;29.83;;;10.63;;
47555;SDS011;33291;46.222;26.460;2022-10-16T03:50:44;37.28;;;12.93;;
47555;SDS011;33291;46.222;26.460;2022-10-16T03:53:11;24.70;;;9.25;;
47555;SDS011;33291;46.222;26.460;2022-10-16T03:55:36;20.55;;;9.18;;
47555;SDS011;33291;46.222;26.460;2022-10-16T03:58:02;16.55;;;6.75;;
47555;SDS011;33291;46.222;26.460;2022-10-16T04:00:28;36.47;;;10.88;;
47555;SDS011;33291;46.222;26.460;2022-10-16T04:02:53;70.15;;;19.58;;
47555;SDS011;33291;46.222;26.460;2022-10-16T04:05:19;57.78;;;16.48;;
47555;SDS011;33291;46.222;26.460;2022-10-16T04:07:44;32.65;;;11.90;;
47555;SDS011;33291;46.222;26.460;2022-10-16T04:10:10;35.05;;;11.27;;
47555;SDS011;33291;46.222;26.460;2022-10-16T04:12:36;17.52;;;7.65;;
47555;SDS011;33291;46.222;26.460;2022-10-16T04:15:01;19.30;;;7.20;;
47555;SDS011;33291;46.222;26.460;2022-10-16T04:17:27;31.73;;;9.48;;
47555;SDS011;33291;46.222;26.460;2022-10-16T04:19:53;40.95;;;12.05;;
47555;SDS011;33291;46.222;26.460;2022-10-16T04:22:18;52.58;;;17.55;;
47555;SDS011;33291;46.222;26.460;2022-10-16T04:24:44;58.20;;;19.92;;
47555;SDS011;33291;46.222;26.460;2022-10-16T04:27:09;68.22;;;22.30;;
47555;SDS011;33291;46.222;26.460;2022-10-16T04:29:35;29.50;;;13.13;;
47555;SDS011;33291;46.222;26.460;2022-10-16T04:32:00;50.97;;;15.07;;
47555;SDS011;33291;46.222;26.460;2022-10-16T04:34:26;47.08;;;17.38;;
47555;SDS011;33291;46.222;26.460;2022-10-16T04:36:51;49.55;;;14.88;;
47555;SDS011;33291;46.222;26.460;2022-10-16T04:39:17;60.83;;;17.35;;
47555;SDS011;33291;46.222;26.460;2022-10-16T04:41:42;110.82;;;27.20;;
47555;SDS011;33291;46.222;26.460;2022-10-16T04:44:08;68.00;;;22.50;;
47555;SDS011;33291;46.222;26.460;2022-10-16T04:46:34;67.10;;;22.40;;
47555;SDS011;33291;46.222;26.460;2022-10-16T04:49:00;62.55;;;18.23;;
47555;SDS011;33291;46.222;26.460;2022-10-16T04:51:25;27.40;;;10.57;;
47555;SDS011;33291;46.222;26.460;2022-10-16T04:53:52;20.17;;;8.02;;
47555;SDS011;33291;46.222;26.460;2022-10-16T04:56:19;45.13;;;17.77;;
47555;SDS011;33291;46.222;26.460;2022-10-16T04:58:46;72.43;;;26.05;;
47555;SDS011;33291;46.222;26.460;2022-10-16T05:01:11;95.60;;;32.70;;
47555;SDS011;33291;46.222;26.460;2022-10-16T05:03:37;85.55;;;28.60;;
47555;SDS011;33291;46.222;26.460;2022-10-16T05:06:04;68.40;;;21.63;;
47555;SDS011;33291;46.222;26.460;2022-10-16T05:08:30;43.30;;;14.88;;
47555;SDS011;33291;46.222;26.460;2022-10-16T05:10:56;25.83;;;9.32;;
47555;SDS011;33291;46.222;26.460;2022-10-16T05:13:21;38.45;;;11.10;;
47555;SDS011;33291;46.222;26.460;2022-10-16T05:15:48;41.00;;;16.05;;
47555;SDS011;33291;46.222;26.460;2022-10-16T05:18:14;31.05;;;13.15;;
47555;SDS011;33291;46.222;26.460;2022-10-16T05:20:40;23.35;;;9.57;;
47555;SDS011;33291;46.222;26.460;2022-10-16T05:23:07;27.83;;;11.43;;
47555;SDS011;33291;46.222;26.460;2022-10-16T05:25:35;18.92;;;9.80;;
47555;SDS011;33291;46.222;26.460;2022-10-16T05:28:01;21.70;;;8.38;;
47555;SDS011;33291;46.222;26.460;2022-10-16T05:30:26;18.38;;;10.00;;
47555;SDS011;33291;46.222;26.460;2022-10-16T05:32:52;16.90;;;8.75;;
47555;SDS011;33291;46.222;26.460;2022-10-16T05:35:18;22.60;;;10.32;;
47555;SDS011;33291;46.222;26.460;2022-10-16T05:37:44;17.48;;;7.47;;
47555;SDS011;33291;46.222;26.460;2022-10-16T05:40:09;12.68;;;5.60;;
47555;SDS011;33291;46.222;26.460;2022-10-16T05:42:35;11.38;;;5.40;;
47555;SDS011;33291;46.222;26.460;2022-10-16T05:45:02;11.45;;;6.28;;
47555;SDS011;33291;46.222;26.460;2022-10-16T05:47:29;11.68;;;6.85;;
47555;SDS011;33291;46.222;26.460;2022-10-16T05:49:54;15.23;;;9.27;;
47555;SDS011;33291;46.222;26.460;2022-10-16T05:52:20;11.95;;;6.80;;
47555;SDS011;33291;46.222;26.460;2022-10-16T05:54:46;14.35;;;8.63;;
47555;SDS011;33291;46.222;26.460;2022-10-16T05:57:12;16.80;;;10.00;;
47555;SDS011;33291;46.222;26.460;2022-10-16T05:59:37;10.90;;;7.38;;
47555;SDS011;33291;46.222;26.460;2022-10-16T06:02:03;12.85;;;8.35;;
47555;SDS011;33291;46.222;26.460;2022-10-16T06:04:29;12.93;;;7.93;;
47555;SDS011;33291;46.222;26.460;2022-10-16T06:06:57;13.52;;;7.53;;
47555;SDS011;33291;46.222;26.460;2022-10-16T06:09:25;9.48;;;6.57;;
47555;SDS011;33291;46.222;26.460;2022-10-16T06:11:51;9.77;;;6.70;;
47555;SDS011;33291;46.222;26.460;2022-10-16T06:14:16;9.10;;;5.53;;
47555;SDS011;33291;46.222;26.460;2022-10-16T06:16:42;14.90;;;7.53;;
47555;SDS011;33291;46.222;26.460;2022-10-16T06:19:08;23.40;;;14.43;;
47555;SDS011;33291;46.222;26.460;2022-10-16T06:21:34;13.70;;;9.18;;
47555;SDS011;33291;46.222;26.460;2022-10-16T06:24:00;14.07;;;8.73;;
47555;SDS011;33291;46.222;26.460;2022-10-16T06:26:27;20.73;;;9.52;;
47555;SDS011;33291;46.222;26.460;2022-10-16T06:28:55;15.25;;;9.98;;
47555;SDS011;33291;46.222;26.460;2022-10-16T06:31:21;13.90;;;5.93;;
47555;SDS011;33291;46.222;26.460;2022-10-16T06:33:50;9.45;;;5.90;;
47555;SDS011;33291;46.222;26.460;2022-10-16T06:36:16;7.80;;;4.70;;
47555;SDS011;33291;46.222;26.460;2022-10-16T06:38:43;23.98;;;15.27;;
47555;SDS011;33291;46.222;26.460;2022-10-16T06:41:13;70.47;;;39.72;;
47555;SDS011;33291;46.222;26.460;2022-10-16T06:43:41;10.05;;;6.75;;
47555;SDS011;33291;46.222;26.460;2022-10-16T06:46:07;61.83;;;37.42;;
47555;SDS011;33291;46.222;26.460;2022-10-16T06:48:35;107.03;;;69.15;;
47555;SDS011;33291;46.222;26.460;2022-10-16T06:53:31;8.23;;;5.60;;
47555;SDS011;33291;46.222;26.460;2022-10-16T06:56:12;8.82;;;5.18;;
47555;SDS011;33291;46.222;26.460;2022-10-16T06:58:40;10.60;;;4.78;;
47555;SDS011;33291;46.222;26.460;2022-10-16T07:01:06;11.57;;;4.10;;
47555;SDS011;33291;46.222;26.460;2022-10-16T07:03:32;7.35;;;4.97;;
47555;SDS011;33291;46.222;26.460;2022-10-16T07:06:02;9.57;;;5.55;;
47555;SDS011;33291;46.222;26.460;2022-10-16T07:08:30;8.73;;;4.68;;
47555;SDS011;33291;46.222;26.460;2022-10-16T07:11:03;10.25;;;4.97;;
47555;SDS011;33291;46.222;26.460;2022-10-16T07:13:37;12.13;;;4.93;;
47555;SDS011;33291;46.222;26.460;2022-10-16T07:16:14;10.60;;;5.47;;
47555;SDS011;33291;46.222;26.460;2022-10-16T07:18:42;10.60;;;5.28;;
47555;SDS011;33291;46.222;26.460;2022-10-16T07:21:11;14.80;;;6.43;;
47555;SDS011;33291;46.222;26.460;2022-10-16T07:23:38;8.63;;;5.22;;
47555;SDS011;33291;46.222;26.460;2022-10-16T07:26:05;12.68;;;5.82;;
47555;SDS011;33291;46.222;26.460;2022-10-16T07:28:31;10.73;;;5.53;;
47555;SDS011;33291;46.222;26.460;2022-10-16T07:31:04;9.65;;;5.35;;
47555;SDS011;33291;46.222;26.460;2022-10-16T07:33:32;9.98;;;4.78;;
47555;SDS011;33291;46.222;26.460;2022-10-16T07:35:59;6.63;;;4.90;;
47555;SDS011;33291;46.222;26.460;2022-10-16T07:38:24;7.85;;;5.68;;
47555;SDS011;33291;46.222;26.460;2022-10-16T07:40:57;8.80;;;5.18;;
47555;SDS011;33291;46.222;26.460;2022-10-16T07:43:24;11.85;;;5.70;;
47555;SDS011;33291;46.222;26.460;2022-10-16T07:45:50;17.55;;;6.80;;
47555;SDS011;33291;46.222;26.460;2022-10-16T07:48:16;14.40;;;7.03;;
47555;SDS011;33291;46.222;26.460;2022-10-16T07:50:42;15.18;;;7.18;;
47555;SDS011;33291;46.222;26.460;2022-10-16T07:53:08;16.92;;;9.63;;
47555;SDS011;33291;46.222;26.460;2022-10-16T07:55:34;20.00;;;12.10;;
47555;SDS011;33291;46.222;26.460;2022-10-16T07:58:00;18.58;;;10.27;;
47555;SDS011;33291;46.222;26.460;2022-10-16T08:00:25;11.15;;;8.27;;
47555;SDS011;33291;46.222;26.460;2022-10-16T08:02:51;13.07;;;10.02;;
47555;SDS011;33291;46.222;26.460;2022-10-16T08:05:16;8.77;;;5.32;;
47555;SDS011;33291;46.222;26.460;2022-10-16T08:07:42;9.15;;;5.40;;
47555;SDS011;33291;46.222;26.460;2022-10-16T08:10:17;5.88;;;4.40;;
47555;SDS011;33291;46.222;26.460;2022-10-16T08:12:45;11.30;;;4.60;;
47555;SDS011;33291;46.222;26.460;2022-10-16T08:15:10;9.75;;;4.63;;
47555;SDS011;33291;46.222;26.460;2022-10-16T08:17:36;10.90;;;4.78;;
47555;SDS011;33291;46.222;26.460;2022-10-16T08:20:02;15.27;;;5.53;;
47555;SDS011;33291;46.222;26.460;2022-10-16T08:22:28;8.48;;;4.43;;
47555;SDS011;33291;46.222;26.460;2022-10-16T08:24:54;11.38;;;4.85;;
47555;SDS011;33291;46.222;26.460;2022-10-16T08:27:20;12.00;;;4.85;;
47555;SDS011;33291;46.222;26.460;2022-10-16T08:29:45;7.78;;;4.68;;
47555;SDS011;33291;46.222;26.460;2022-10-16T08:32:11;13.30;;;5.13;;
47555;SDS011;33291;46.222;26.460;2022-10-16T08:34:37;8.80;;;4.65;;
47555;SDS011;33291;46.222;26.460;2022-10-16T08:37:02;6.75;;;4.45;;
47555;SDS011;33291;46.222;26.460;2022-10-16T08:39:28;8.00;;;5.28;;
47555;SDS011;33291;46.222;26.460;2022-10-16T08:50:14;9.93;;;4.82;;
47555;SDS011;33291;46.222;26.460;2022-10-16T08:52:46;7.22;;;4.30;;
47555;SDS011;33291;46.222;26.460;2022-10-16T08:58:11;9.65;;;4.00;;
47555;SDS011;33291;46.222;26.460;2022-10-16T09:00:42;6.30;;;3.88;;
47555;SDS011;33291;46.222;26.460;2022-10-16T09:11:36;8.13;;;4.68;;
47555;SDS011;33291;46.222;26.460;2022-10-16T09:17:18;6.53;;;4.03;;
47555;SDS011;33291;46.222;26.460;2022-10-16T09:20:12;11.13;;;4.25;;
47555;SDS011;33291;46.222;26.460;2022-10-16T09:22:47;9.43;;;4.22;;
47555;SDS011;33291;46.222;26.460;2022-10-16T09:25:17;6.90;;;4.15;;
47555;SDS011;33291;46.222;26.460;2022-10-16T09:27:45;9.23;;;4.03;;
47555;SDS011;33291;46.222;26.460;2022-10-16T09:30:14;9.95;;;4.78;;
47555;SDS011;33291;46.222;26.460;2022-10-16T09:32:44;9.38;;;4.57;;
47555;SDS011;33291;46.222;26.460;2022-10-16T09:35:16;8.95;;;4.15;;
47555;SDS011;33291;46.222;26.460;2022-10-16T09:37:46;9.65;;;4.75;;
47555;SDS011;33291;46.222;26.460;2022-10-16T09:40:25;10.60;;;4.22;;
47555;SDS011;33291;46.222;26.460;2022-10-16T09:45:57;10.82;;;4.95;;
47555;SDS011;33291;46.222;26.460;2022-10-16T09:48:25;8.90;;;4.15;;
47555;SDS011;33291;46.222;26.460;2022-10-16T09:50:57;6.72;;;4.18;;
47555;SDS011;33291;46.222;26.460;2022-10-16T09:53:38;8.18;;;5.28;;
47555;SDS011;33291;46.222;26.460;2022-10-16T09:56:10;8.90;;;4.25;;
47555;SDS011;33291;46.222;26.460;2022-10-16T09:58:41;10.20;;;4.55;;
47555;SDS011;33291;46.222;26.460;2022-10-16T10:01:12;12.98;;;4.60;;
47555;SDS011;33291;46.222;26.460;2022-10-16T10:03:40;9.82;;;4.20;;
47555;SDS011;33291;46.222;26.460;2022-10-16T10:06:18;12.43;;;5.10;;
47555;SDS011;33291;46.222;26.460;2022-10-16T10:14:43;7.68;;;4.43;;
47555;SDS011;33291;46.222;26.460;2022-10-16T10:17:12;10.65;;;5.47;;
47555;SDS011;33291;46.222;26.460;2022-10-16T10:19:53;11.93;;;4.63;;
47555;SDS011;33291;46.222;26.460;2022-10-16T10:27:56;12.55;;;5.70;;
47555;SDS011;33291;46.222;26.460;2022-10-16T10:35:45;15.93;;;4.70;;
47555;SDS011;33291;46.222;26.460;2022-10-16T10:38:34;8.75;;;4.80;;
47555;SDS011;33291;46.222;26.460;2022-10-16T10:44:03;13.85;;;3.72;;
47555;SDS011;33291;46.222;26.460;2022-10-16T10:47:01;6.68;;;3.72;;
47555;SDS011;33291;46.222;26.460;2022-10-16T11:05:44;7.55;;;4.05;;
47555;SDS011;33291;46.222;26.460;2022-10-16T11:08:19;14.18;;;4.38;;
47555;SDS011;33291;46.222;26.460;2022-10-16T11:11:00;4.65;;;3.10;;
47555;SDS011;33291;46.222;26.460;2022-10-16T11:22:18;7.57;;;3.85;;
47555;SDS011;33291;46.222;26.460;2022-10-16T11:24:51;13.13;;;3.58;;
47555;SDS011;33291;46.222;26.460;2022-10-16T11:27:30;9.48;;;3.85;;
47555;SDS011;33291;46.222;26.460;2022-10-16T11:30:03;5.78;;;3.80;;
47555;SDS011;33291;46.222;26.460;2022-10-16T11:32:45;8.52;;;3.92;;
47555;SDS011;33291;46.222;26.460;2022-10-16T11:35:19;8.57;;;4.20;;
47555;SDS011;33291;46.222;26.460;2022-10-16T11:37:49;10.43;;;4.10;;
47555;SDS011;33291;46.222;26.460;2022-10-16T11:40:25;6.72;;;3.78;;
47555;SDS011;33291;46.222;26.460;2022-10-16T11:43:13;6.13;;;3.50;;
47555;SDS011;33291;46.222;26.460;2022-10-16T11:45:45;8.65;;;3.92;;
47555;SDS011;33291;46.222;26.460;2022-10-16T11:48:18;7.15;;;3.92;;
47555;SDS011;33291;46.222;26.460;2022-10-16T11:50:59;9.63;;;4.03;;
47555;SDS011;33291;46.222;26.460;2022-10-16T11:53:34;6.50;;;3.72;;
47555;SDS011;33291;46.222;26.460;2022-10-16T11:56:19;9.50;;;3.45;;
47555;SDS011;33291;46.222;26.460;2022-10-16T11:58:53;6.40;;;3.78;;
47555;SDS011;33291;46.222;26.460;2022-10-16T12:04:21;9.15;;;4.03;;
47555;SDS011;33291;46.222;26.460;2022-10-16T12:07:11;8.20;;;4.75;;
47555;SDS011;33291;46.222;26.460;2022-10-16T12:09:43;7.07;;;3.72;;
47555;SDS011;33291;46.222;26.460;2022-10-16T12:12:25;6.43;;;3.78;;
47555;SDS011;33291;46.222;26.460;2022-10-16T12:15:01;5.07;;;3.70;;
47555;SDS011;33291;46.222;26.460;2022-10-16T12:17:35;6.88;;;3.40;;
47555;SDS011;33291;46.222;26.460;2022-10-16T12:22:41;7.45;;;4.50;;
47555;SDS011;33291;46.222;26.460;2022-10-16T12:25:26;8.65;;;3.45;;
47555;SDS011;33291;46.222;26.460;2022-10-16T12:27:55;12.93;;;3.85;;
47555;SDS011;33291;46.222;26.460;2022-10-16T12:30:24;8.50;;;3.85;;
47555;SDS011;33291;46.222;26.460;2022-10-16T12:33:02;8.68;;;3.50;;
47555;SDS011;33291;46.222;26.460;2022-10-16T12:35:31;11.48;;;4.45;;
47555;SDS011;33291;46.222;26.460;2022-10-16T12:43:55;6.03;;;2.85;;
47555;SDS011;33291;46.222;26.460;2022-10-16T12:46:23;8.23;;;3.47;;
47555;SDS011;33291;46.222;26.460;2022-10-16T12:51:37;8.07;;;3.58;;
47555;SDS011;33291;46.222;26.460;2022-10-16T12:54:12;4.70;;;3.10;;
47555;SDS011;33291;46.222;26.460;2022-10-16T13:10:30;7.15;;;3.70;;
47555;SDS011;33291;46.222;26.460;2022-10-16T13:26:17;10.77;;;3.67;;
47555;SDS011;33291;46.222;26.460;2022-10-16T13:29:01;17.77;;;4.30;;
47555;SDS011;33291;46.222;26.460;2022-10-16T13:31:27;12.45;;;4.35;;
47555;SDS011;33291;46.222;26.460;2022-10-16T13:33:54;8.68;;;4.05;;
47555;SDS011;33291;46.222;26.460;2022-10-16T13:36:33;8.77;;;3.90;;
47555;SDS011;33291;46.222;26.460;2022-10-16T13:39:10;8.55;;;3.60;;
47555;SDS011;33291;46.222;26.460;2022-10-16T13:44:47;10.80;;;4.57;;
47555;SDS011;33291;46.222;26.460;2022-10-16T13:47:19;9.73;;;3.75;;
47555;SDS011;33291;46.222;26.460;2022-10-16T13:49:58;11.95;;;4.50;;
47555;SDS011;33291;46.222;26.460;2022-10-16T13:52:26;12.55;;;6.20;;
47555;SDS011;33291;46.222;26.460;2022-10-16T13:54:52;14.13;;;4.70;;
47555;SDS011;33291;46.222;26.460;2022-10-16T13:57:18;8.68;;;4.25;;
47555;SDS011;33291;46.222;26.460;2022-10-16T13:59:48;12.02;;;5.43;;
47555;SDS011;33291;46.222;26.460;2022-10-16T14:04:47;13.50;;;5.13;;
47555;SDS011;33291;46.222;26.460;2022-10-16T14:07:14;18.88;;;6.25;;
47555;SDS011;33291;46.222;26.460;2022-10-16T14:09:51;11.55;;;4.40;;
47555;SDS011;33291;46.222;26.460;2022-10-16T14:12:17;21.48;;;4.03;;
47555;SDS011;33291;46.222;26.460;2022-10-16T14:14:44;12.75;;;4.68;;
47555;SDS011;33291;46.222;26.460;2022-10-16T14:17:27;8.10;;;4.28;;
47555;SDS011;33291;46.222;26.460;2022-10-16T14:19:57;11.10;;;5.28;;
47555;SDS011;33291;46.222;26.460;2022-10-16T14:22:40;22.83;;;6.82;;
47555;SDS011;33291;46.222;26.460;2022-10-16T14:27:58;10.80;;;4.00;;
47555;SDS011;33291;46.222;26.460;2022-10-16T14:30:25;9.88;;;3.88;;
47555;SDS011;33291;46.222;26.460;2022-10-16T14:32:58;15.40;;;8.43;;
47555;SDS011;33291;46.222;26.460;2022-10-16T14:35:27;19.55;;;8.60;;
47555;SDS011;33291;46.222;26.460;2022-10-16T14:37:55;17.02;;;4.35;;
47555;SDS011;33291;46.222;26.460;2022-10-16T14:40:24;8.80;;;4.05;;
47555;SDS011;33291;46.222;26.460;2022-10-16T14:42:52;11.90;;;4.32;;
47555;SDS011;33291;46.222;26.460;2022-10-16T14:45:19;10.25;;;3.97;;
47555;SDS011;33291;46.222;26.460;2022-10-16T14:47:51;22.70;;;7.53;;
47555;SDS011;33291;46.222;26.460;2022-10-16T14:50:19;14.35;;;5.90;;
47555;SDS011;33291;46.222;26.460;2022-10-16T14:52:44;16.83;;;9.35;;
47555;SDS011;33291;46.222;26.460;2022-10-16T14:55:10;6.38;;;3.33;;
47555;SDS011;33291;46.222;26.460;2022-10-16T14:57:36;12.95;;;4.35;;
47555;SDS011;33291;46.222;26.460;2022-10-16T15:00:06;21.02;;;5.35;;
47555;SDS011;33291;46.222;26.460;2022-10-16T15:02:43;12.10;;;4.35;;
47555;SDS011;33291;46.222;26.460;2022-10-16T15:05:20;13.00;;;4.18;;
47555;SDS011;33291;46.222;26.460;2022-10-16T15:07:48;8.60;;;5.53;;
47555;SDS011;33291;46.222;26.460;2022-10-16T15:10:15;21.05;;;10.35;;
47555;SDS011;33291;46.222;26.460;2022-10-16T15:12:41;10.70;;;8.50;;
47555;SDS011;33291;46.222;26.460;2022-10-16T15:17:48;9.85;;;5.68;;
47555;SDS011;33291;46.222;26.460;2022-10-16T15:20:29;10.80;;;8.55;;
47555;SDS011;33291;46.222;26.460;2022-10-16T15:22:59;8.32;;;4.35;;
47555;SDS011;33291;46.222;26.460;2022-10-16T15:25:33;9.48;;;4.93;;
47555;SDS011;33291;46.222;26.460;2022-10-16T15:28:04;9.73;;;4.30;;
47555;SDS011;33291;46.222;26.460;2022-10-16T15:30:31;10.70;;;4.43;;
47555;SDS011;33291;46.222;26.460;2022-10-16T15:32:57;6.45;;;3.67;;
47555;SDS011;33291;46.222;26.460;2022-10-16T15:35:23;8.35;;;4.32;;
47555;SDS011;33291;46.222;26.460;2022-10-16T15:37:49;11.02;;;4.85;;
47555;SDS011;33291;46.222;26.460;2022-10-16T15:40:15;190.82;;;84.18;;
47555;SDS011;33291;46.222;26.460;2022-10-16T15:42:42;645.38;;;373.98;;
47555;SDS011;33291;46.222;26.460;2022-10-16T15:45:08;430.98;;;235.02;;
47555;SDS011;33291;46.222;26.460;2022-10-16T15:47:35;419.20;;;195.85;;
47555;SDS011;33291;46.222;26.460;2022-10-16T15:50:01;198.32;;;89.15;;
47555;SDS011;33291;46.222;26.460;2022-10-16T15:52:27;269.65;;;123.60;;
47555;SDS011;33291;46.222;26.460;2022-10-16T15:54:53;173.55;;;77.07;;
47555;SDS011;33291;46.222;26.460;2022-10-16T15:57:19;79.28;;;34.45;;
47555;SDS011;33291;46.222;26.460;2022-10-16T15:59:45;60.60;;;25.33;;
47555;SDS011;33291;46.222;26.460;2022-10-16T16:02:10;92.15;;;38.78;;
47555;SDS011;33291;46.222;26.460;2022-10-16T16:04:36;122.07;;;52.17;;
47555;SDS011;33291;46.222;26.460;2022-10-16T16:07:02;42.30;;;16.92;;
47555;SDS011;33291;46.222;26.460;2022-10-16T16:09:31;80.15;;;29.35;;
47555;SDS011;33291;46.222;26.460;2022-10-16T16:11:56;209.32;;;84.18;;
47555;SDS011;33291;46.222;26.460;2022-10-16T16:14:25;134.30;;;55.92;;
47555;SDS011;33291;46.222;26.460;2022-10-16T16:16:53;177.43;;;79.50;;
47555;SDS011;33291;46.222;26.460;2022-10-16T16:19:22;45.10;;;22.80;;
47555;SDS011;33291;46.222;26.460;2022-10-16T16:21:48;12.55;;;6.68;;
47555;SDS011;33291;46.222;26.460;2022-10-16T16:24:14;17.80;;;9.18;;
47555;SDS011;33291;46.222;26.460;2022-10-16T16:26:40;63.05;;;24.67;;
47555;SDS011;33291;46.222;26.460;2022-10-16T16:29:11;58.10;;;25.70;;
47555;SDS011;33291;46.222;26.460;2022-10-16T16:31:39;93.20;;;32.80;;
47555;SDS011;33291;46.222;26.460;2022-10-16T16:34:05;128.88;;;45.90;;
47555;SDS011;33291;46.222;26.460;2022-10-16T16:36:31;50.70;;;20.05;;
47555;SDS011;33291;46.222;26.460;2022-10-16T16:38:57;64.70;;;24.98;;
47555;SDS011;33291;46.222;26.460;2022-10-16T16:41:24;30.65;;;13.02;;
47555;SDS011;33291;46.222;26.460;2022-10-16T16:43:52;53.80;;;23.42;;
47555;SDS011;33291;46.222;26.460;2022-10-16T16:46:19;24.65;;;10.07;;
47555;SDS011;33291;46.222;26.460;2022-10-16T16:48:45;76.65;;;28.10;;
47555;SDS011;33291;46.222;26.460;2022-10-16T16:51:12;114.00;;;47.88;;
47555;SDS011;33291;46.222;26.460;2022-10-16T16:53:51;128.40;;;46.85;;
47555;SDS011;33291;46.222;26.460;2022-10-16T16:58:45;149.60;;;50.03;;
47555;SDS011;33291;46.222;26.460;2022-10-16T17:01:11;161.60;;;58.78;;
47555;SDS011;33291;46.222;26.460;2022-10-16T17:03:37;94.78;;;36.72;;
47555;SDS011;33291;46.222;26.460;2022-10-16T17:06:04;125.70;;;47.38;;
47555;SDS011;33291;46.222;26.460;2022-10-16T17:08:32;115.35;;;48.70;;
47555;SDS011;33291;46.222;26.460;2022-10-16T17:11:00;65.47;;;28.40;;
47555;SDS011;33291;46.222;26.460;2022-10-16T17:13:28;53.00;;;23.08;;